sensor_id;sensor_type;location;lat;lon;timestamp;pressure;altitude;pressure_sealevel;temperature;humidity
54556;BME280;57291;37.520;15.106;2023-01-29T00:01:52;101149.53;;;7.97;87.45
54556;BME280;57291;37.520;15.106;2023-01-29T00:04:19;101152.78;;;7.99;87.39
54556;BME280;57291;37.520;15.106;2023-01-29T00:06:46;101142.50;;;8.01;86.79
54556;BME280;57291;37.520;15.106;2023-01-29T00:09:13;101149.00;;;8.00;87.02
54556;BME280;57291;37.520;15.106;2023-01-29T00:11:41;101153.34;;;8.01;86.61
54556;BME280;57291;37.520;15.106;2023-01-29T00:14:08;101153.06;;;7.97;86.72
54556;BME280;57291;37.520;15.106;2023-01-29T00:16:35;101155.22;;;7.95;86.83
54556;BME280;57291;37.520;15.106;2023-01-29T00:19:02;101160.38;;;7.97;86.76
54556;BME280;57291;37.520;15.106;2023-01-29T00:21:30;101162.50;;;7.95;86.69
54556;BME280;57291;37.520;15.106;2023-01-29T00:23:58;101159.00;;;7.94;86.51
54556;BME280;57291;37.520;15.106;2023-01-29T00:26:26;101166.84;;;7.96;86.47
54556;BME280;57291;37.520;15.106;2023-01-29T00:28:54;101161.72;;;7.99;86.14
54556;BME280;57291;37.520;15.106;2023-01-29T00:31:23;101165.78;;;8.02;85.81
54556;BME280;57291;37.520;15.106;2023-01-29T00:33:51;101164.44;;;7.99;85.46
54556;BME280;57291;37.520;15.106;2023-01-29T00:36:20;101167.41;;;7.98;85.33
54556;BME280;57291;37.520;15.106;2023-01-29T00:38:54;101176.59;;;7.97;85.24
54556;BME280;57291;37.520;15.106;2023-01-29T00:41:29;101176.06;;;7.95;84.99
54556;BME280;57291;37.520;15.106;2023-01-29T00:44:15;101181.75;;;7.93;84.92
54556;BME280;57291;37.520;15.106;2023-01-29T00:47:02;101179.28;;;7.92;85.02
54556;BME280;57291;37.520;15.106;2023-01-29T00:49:29;101184.19;;;7.90;84.85
54556;BME280;57291;37.520;15.106;2023-01-29T00:51:57;101183.88;;;7.86;85.14
54556;BME280;57291;37.520;15.106;2023-01-29T00:54:42;101184.09;;;7.80;84.78
54556;BME280;57291;37.520;15.106;2023-01-29T00:57:09;101184.38;;;7.78;85.20
54556;BME280;57291;37.520;15.106;2023-01-29T00:59:36;101189.53;;;7.80;84.96
54556;BME280;57291;37.520;15.106;2023-01-29T01:02:03;101188.19;;;7.77;84.85
54556;BME280;57291;37.520;15.106;2023-01-29T01:04:49;101182.50;;;7.73;85.19
54556;BME280;57291;37.520;15.106;2023-01-29T01:07:16;101192.22;;;7.74;85.36
54556;BME280;57291;37.520;15.106;2023-01-29T01:09:43;101172.72;;;7.72;85.34
54556;BME280;57291;37.520;15.106;2023-01-29T01:12:29;101178.13;;;7.67;85.31
54556;BME280;57291;37.520;15.106;2023-01-29T01:14:57;101173.78;;;7.66;85.40
54556;BME280;57291;37.520;15.106;2023-01-29T01:17:24;101180.56;;;7.64;85.63
54556;BME280;57291;37.520;15.106;2023-01-29T01:19:51;101181.34;;;7.59;85.40
54556;BME280;57291;37.520;15.106;2023-01-29T01:22:18;101192.16;;;7.59;85.79
54556;BME280;57291;37.520;15.106;2023-01-29T01:24:45;101187.81;;;7.58;85.86
54556;BME280;57291;37.520;15.106;2023-01-29T01:27:12;101184.03;;;7.54;85.92
54556;BME280;57291;37.520;15.106;2023-01-29T01:29:39;101184.84;;;7.55;86.29
54556;BME280;57291;37.520;15.106;2023-01-29T01:32:06;101186.22;;;7.57;86.21
54556;BME280;57291;37.520;15.106;2023-01-29T01:34:34;101187.03;;;7.58;86.15
54556;BME280;57291;37.520;15.106;2023-01-29T01:37:01;101185.69;;;7.60;85.86
54556;BME280;57291;37.520;15.106;2023-01-29T01:39:28;101193.25;;;7.63;85.36
54556;BME280;57291;37.520;15.106;2023-01-29T01:41:56;101192.44;;;7.58;85.14
54556;BME280;57291;37.520;15.106;2023-01-29T01:44:52;101192.38;;;7.52;85.58
54556;BME280;57291;37.520;15.106;2023-01-29T01:47:42;101199.13;;;7.50;86.03
54556;BME280;57291;37.520;15.106;2023-01-29T01:50:21;101200.78;;;7.56;86.12
54556;BME280;57291;37.520;15.106;2023-01-29T01:52:52;101197.84;;;7.58;86.22
54556;BME280;57291;37.520;15.106;2023-01-29T01:55:25;101189.44;;;7.59;85.94
54556;BME280;57291;37.520;15.106;2023-01-29T01:58:00;101194.31;;;7.57;86.15
54556;BME280;57291;37.520;15.106;2023-01-29T02:00:29;101198.91;;;7.57;86.29
54556;BME280;57291;37.520;15.106;2023-01-29T02:02:56;101200.53;;;7.58;86.23
54556;BME280;57291;37.520;15.106;2023-01-29T02:05:42;101197.31;;;7.61;86.47
54556;BME280;57291;37.520;15.106;2023-01-29T02:11:34;101210.03;;;7.65;86.13
54556;BME280;57291;37.520;15.106;2023-01-29T02:14:02;101211.66;;;7.66;85.86
54556;BME280;57291;37.520;15.106;2023-01-29T02:16:29;101207.09;;;7.67;85.84
54556;BME280;57291;37.520;15.106;2023-01-29T02:18:56;101213.59;;;7.71;85.82
54556;BME280;57291;37.520;15.106;2023-01-29T02:21:51;101201.13;;;7.70;85.87
54556;BME280;57291;37.520;15.106;2023-01-29T02:24:54;101201.69;;;7.67;85.81
54556;BME280;57291;37.520;15.106;2023-01-29T02:28:01;101202.72;;;7.61;85.77
54556;BME280;57291;37.520;15.106;2023-01-29T02:30:48;101206.72;;;7.53;86.05
54556;BME280;57291;37.520;15.106;2023-01-29T02:38:42;101208.78;;;7.31;86.48
54556;BME280;57291;37.520;15.106;2023-01-29T02:41:26;101207.66;;;7.26;86.72
54556;BME280;57291;37.520;15.106;2023-01-29T02:46:46;101226.53;;;7.16;87.48
54556;BME280;57291;37.520;15.106;2023-01-29T02:52:02;101231.34;;;7.09;88.22
54556;BME280;57291;37.520;15.106;2023-01-29T02:54:38;101247.63;;;7.19;88.49
54556;BME280;57291;37.520;15.106;2023-01-29T02:57:15;101254.19;;;7.28;88.73
54556;BME280;57291;37.520;15.106;2023-01-29T03:00:09;101239.41;;;7.41;88.56
54556;BME280;57291;37.520;15.106;2023-01-29T03:05:27;101241.59;;;7.49;87.74
54556;BME280;57291;37.520;15.106;2023-01-29T03:08:00;101249.47;;;7.51;87.55
54556;BME280;57291;37.520;15.106;2023-01-29T03:10:39;101242.72;;;7.54;87.80
54556;BME280;57291;37.520;15.106;2023-01-29T03:13:17;101247.91;;;7.60;87.89
54556;BME280;57291;37.520;15.106;2023-01-29T03:15:51;101253.31;;;7.65;87.86
54556;BME280;57291;37.520;15.106;2023-01-29T03:18:43;101259.84;;;7.69;87.74
54556;BME280;57291;37.520;15.106;2023-01-29T03:21:22;101255.53;;;7.73;87.71
54556;BME280;57291;37.520;15.106;2023-01-29T03:24:11;101260.44;;;7.77;87.37
54556;BME280;57291;37.520;15.106;2023-01-29T03:27:01;101256.63;;;7.78;87.88
54556;BME280;57291;37.520;15.106;2023-01-29T03:29:50;101264.78;;;7.83;87.83
54556;BME280;57291;37.520;15.106;2023-01-29T03:32:58;101251.75;;;7.80;87.94
54556;BME280;57291;37.520;15.106;2023-01-29T03:35:30;101260.44;;;7.77;88.19
54556;BME280;57291;37.520;15.106;2023-01-29T03:38:05;101263.66;;;7.79;88.58
54556;BME280;57291;37.520;15.106;2023-01-29T03:40:53;101260.97;;;7.73;88.24
54556;BME280;57291;37.520;15.106;2023-01-29T03:43:33;101250.06;;;7.63;88.49
54556;BME280;57291;37.520;15.106;2023-01-29T03:46:10;101258.13;;;7.53;88.84
54556;BME280;57291;37.520;15.106;2023-01-29T03:49:02;101250.47;;;7.40;89.03
54556;BME280;57291;37.520;15.106;2023-01-29T03:51:44;101247.47;;;7.31;89.16
54556;BME280;57291;37.520;15.106;2023-01-29T03:54:24;101244.69;;;7.26;89.85
54556;BME280;57291;37.520;15.106;2023-01-29T03:57:01;101249.25;;;7.20;90.00
54556;BME280;57291;37.520;15.106;2023-01-29T04:05:19;101250.56;;;7.13;91.44
54556;BME280;57291;37.520;15.106;2023-01-29T04:08:08;101259.75;;;7.12;91.46
54556;BME280;57291;37.520;15.106;2023-01-29T04:10:38;101264.06;;;7.13;92.02
54556;BME280;57291;37.520;15.106;2023-01-29T04:13:11;101271.66;;;7.16;92.11
54556;BME280;57291;37.520;15.106;2023-01-29T04:15:46;101263.59;;;7.21;92.44
54556;BME280;57291;37.520;15.106;2023-01-29T04:18:17;101263.38;;;7.27;92.60
54556;BME280;57291;37.520;15.106;2023-01-29T04:21:04;101272.63;;;7.37;92.62
54556;BME280;57291;37.520;15.106;2023-01-29T04:23:33;101275.38;;;7.42;92.84
54556;BME280;57291;37.520;15.106;2023-01-29T04:31:44;101265.72;;;7.56;93.32
54556;BME280;57291;37.520;15.106;2023-01-29T04:34:58;101272.25;;;7.65;93.50
54556;BME280;57291;37.520;15.106;2023-01-29T04:37:35;101266.84;;;7.65;93.56
54556;BME280;57291;37.520;15.106;2023-01-29T04:40:25;101262.00;;;7.67;93.78
54556;BME280;57291;37.520;15.106;2023-01-29T04:46:12;101259.25;;;7.62;94.10
54556;BME280;57291;37.520;15.106;2023-01-29T04:54:17;101273.53;;;7.52;94.94
54556;BME280;57291;37.520;15.106;2023-01-29T04:57:13;101291.94;;;7.50;95.26
54556;BME280;57291;37.520;15.106;2023-01-29T04:59:46;101279.22;;;7.51;95.65
54556;BME280;57291;37.520;15.106;2023-01-29T05:02:14;101283.31;;;7.54;95.89
54556;BME280;57291;37.520;15.106;2023-01-29T05:04:42;101295.47;;;7.56;96.03
54556;BME280;57291;37.520;15.106;2023-01-29T05:07:12;101292.47;;;7.52;95.99
54556;BME280;57291;37.520;15.106;2023-01-29T05:09:43;101292.47;;;7.52;96.25
54556;BME280;57291;37.520;15.106;2023-01-29T05:12:15;101293.28;;;7.53;96.47
54556;BME280;57291;37.520;15.106;2023-01-29T05:14:44;101292.22;;;7.54;96.62
54556;BME280;57291;37.520;15.106;2023-01-29T05:17:15;101296.03;;;7.58;97.07
54556;BME280;57291;37.520;15.106;2023-01-29T05:19:44;101311.75;;;7.61;96.87
54556;BME280;57291;37.520;15.106;2023-01-29T05:22:15;101305.25;;;7.62;97.10
54556;BME280;57291;37.520;15.106;2023-01-29T05:24:43;101314.47;;;7.66;97.15
54556;BME280;57291;37.520;15.106;2023-01-29T05:27:18;101311.50;;;7.68;97.27
54556;BME280;57291;37.520;15.106;2023-01-29T05:30:05;101309.09;;;7.71;97.02
54556;BME280;57291;37.520;15.106;2023-01-29T05:32:32;101308.28;;;7.71;96.91
54556;BME280;57291;37.520;15.106;2023-01-29T05:34:59;101310.72;;;7.72;97.15
54556;BME280;57291;37.520;15.106;2023-01-29T05:37:26;101308.00;;;7.72;97.24
54556;BME280;57291;37.520;15.106;2023-01-29T05:39:53;101298.28;;;7.71;97.45
54556;BME280;57291;37.520;15.106;2023-01-29T05:42:20;101304.78;;;7.70;97.38
54556;BME280;57291;37.520;15.106;2023-01-29T05:44:48;101303.13;;;7.69;97.42
54556;BME280;57291;37.520;15.106;2023-01-29T05:47:19;101303.41;;;7.68;97.95
54556;BME280;57291;37.520;15.106;2023-01-29T05:49:46;101309.06;;;7.66;98.03
54556;BME280;57291;37.520;15.106;2023-01-29T05:52:13;101315.31;;;7.67;98.53
54556;BME280;57291;37.520;15.106;2023-01-29T05:54:40;101315.31;;;7.67;98.84
54556;BME280;57291;37.520;15.106;2023-01-29T05:57:07;101321.53;;;7.67;98.99
54556;BME280;57291;37.520;15.106;2023-01-29T05:59:34;101325.84;;;7.68;99.23
54556;BME280;57291;37.520;15.106;2023-01-29T06:02:01;101326.94;;;7.67;99.29
54556;BME280;57291;37.520;15.106;2023-01-29T06:04:28;101326.66;;;7.64;99.41
54556;BME280;57291;37.520;15.106;2023-01-29T06:06:55;101332.31;;;7.62;99.61
54556;BME280;57291;37.520;15.106;2023-01-29T06:09:23;101331.50;;;7.62;99.63
54556;BME280;57291;37.520;15.106;2023-01-29T06:11:50;101331.50;;;7.62;99.72
54556;BME280;57291;37.520;15.106;2023-01-29T06:14:17;101341.22;;;7.58;99.95
54556;BME280;57291;37.520;15.106;2023-01-29T06:16:44;101342.03;;;7.63;100.00
54556;BME280;57291;37.520;15.106;2023-01-29T06:19:11;101352.56;;;7.60;100.00
54556;BME280;57291;37.520;15.106;2023-01-29T06:21:38;101345.81;;;7.57;100.00
54556;BME280;57291;37.520;15.106;2023-01-29T06:24:05;101354.97;;;7.56;100.00
54556;BME280;57291;37.520;15.106;2023-01-29T06:26:32;101350.66;;;7.55;100.00
54556;BME280;57291;37.520;15.106;2023-01-29T06:28:59;101359.34;;;7.57;100.00
54556;BME280;57291;37.520;15.106;2023-01-29T06:31:26;101357.44;;;7.58;100.00
54556;BME280;57291;37.520;15.106;2023-01-29T06:34:05;101370.19;;;7.62;100.00
54556;BME280;57291;37.520;15.106;2023-01-29T06:36:33;101370.75;;;7.64;100.00
54556;BME280;57291;37.520;15.106;2023-01-29T06:39:00;101381.84;;;7.68;100.00
54556;BME280;57291;37.520;15.106;2023-01-29T06:41:27;101380.00;;;7.73;100.00
54556;BME280;57291;37.520;15.106;2023-01-29T06:43:54;101374.59;;;7.73;100.00
54556;BME280;57291;37.520;15.106;2023-01-29T06:46:21;101381.69;;;7.85;100.00
54556;BME280;57291;37.520;15.106;2023-01-29T06:48:48;101379.56;;;7.87;100.00
54556;BME280;57291;37.520;15.106;2023-01-29T06:51:15;101394.22;;;7.96;100.00
54556;BME280;57291;37.520;15.106;2023-01-29T06:53:43;101396.16;;;8.01;100.00
54556;BME280;57291;37.520;15.106;2023-01-29T06:56:12;101407.28;;;8.04;100.00
54556;BME280;57291;37.520;15.106;2023-01-29T06:58:39;101407.59;;;8.13;100.00
54556;BME280;57291;37.520;15.106;2023-01-29T07:01:09;101411.41;;;8.17;100.00
54556;BME280;57291;37.520;15.106;2023-01-29T07:03:50;101423.09;;;8.28;100.00
54556;BME280;57291;37.520;15.106;2023-01-29T07:06:18;101422.59;;;8.31;100.00
54556;BME280;57291;37.520;15.106;2023-01-29T07:08:45;101424.81;;;8.39;100.00
54556;BME280;57291;37.520;15.106;2023-01-29T07:11:12;101425.41;;;8.51;100.00
54556;BME280;57291;37.520;15.106;2023-01-29T07:13:39;101427.06;;;8.57;99.77
54556;BME280;57291;37.520;15.106;2023-01-29T07:16:06;101420.56;;;8.58;99.10
54556;BME280;57291;37.520;15.106;2023-01-29T07:18:34;101425.72;;;8.60;98.85
54556;BME280;57291;37.520;15.106;2023-01-29T07:21:04;101435.75;;;8.59;98.46
54556;BME280;57291;37.520;15.106;2023-01-29T07:23:34;101431.69;;;8.57;97.94
54556;BME280;57291;37.520;15.106;2023-01-29T07:26:03;101435.75;;;8.59;98.08
54556;BME280;57291;37.520;15.106;2023-01-29T07:28:30;101444.97;;;8.63;97.56
54556;BME280;57291;37.520;15.106;2023-01-29T07:30:58;101444.19;;;8.68;97.55
54556;BME280;57291;37.520;15.106;2023-01-29T07:33:25;101443.13;;;8.74;97.53
54556;BME280;57291;37.520;15.106;2023-01-29T07:35:52;101439.88;;;8.77;97.40
54556;BME280;57291;37.520;15.106;2023-01-29T07:38:19;101457.25;;;8.81;96.78
54556;BME280;57291;37.520;15.106;2023-01-29T07:40:47;101462.38;;;8.78;95.92
54556;BME280;57291;37.520;15.106;2023-01-29T07:43:14;101463.50;;;8.87;94.95
54556;BME280;57291;37.520;15.106;2023-01-29T07:45:42;101464.06;;;8.94;94.21
54556;BME280;57291;37.520;15.106;2023-01-29T07:48:11;101470.03;;;9.01;93.79
54556;BME280;57291;37.520;15.106;2023-01-29T07:50:39;101471.94;;;9.01;93.51
54556;BME280;57291;37.520;15.106;2023-01-29T07:53:06;101479.06;;;9.12;93.99
54556;BME280;57291;37.520;15.106;2023-01-29T07:55:38;101475.84;;;9.25;94.14
54556;BME280;57291;37.520;15.106;2023-01-29T07:58:05;101479.13;;;9.48;94.44
54556;BME280;57291;37.520;15.106;2023-01-29T08:00:32;101476.16;;;9.59;92.58
54556;BME280;57291;37.520;15.106;2023-01-29T08:03:04;101472.91;;;9.78;92.14
54556;BME280;57291;37.520;15.106;2023-01-29T08:05:32;101477.78;;;9.91;90.21
54556;BME280;57291;37.520;15.106;2023-01-29T08:07:59;101479.94;;;9.99;89.63
54556;BME280;57291;37.520;15.106;2023-01-29T08:10:37;101482.09;;;10.13;88.59
54556;BME280;57291;37.520;15.106;2023-01-29T08:13:06;101484.56;;;10.09;86.86
54556;BME280;57291;37.520;15.106;2023-01-29T08:15:34;101495.16;;;10.26;87.29
54556;BME280;57291;37.520;15.106;2023-01-29T08:18:04;101488.34;;;10.44;87.43
54556;BME280;57291;37.520;15.106;2023-01-29T08:20:32;101474.72;;;10.54;87.00
54556;BME280;57291;37.520;15.106;2023-01-29T08:23:07;101482.28;;;10.62;86.81
54556;BME280;57291;37.520;15.106;2023-01-29T08:25:35;101493.69;;;10.74;86.82
54556;BME280;57291;37.520;15.106;2023-01-29T08:28:03;101486.84;;;10.82;86.62
54556;BME280;57291;37.520;15.106;2023-01-29T08:30:32;101491.97;;;10.89;85.72
54556;BME280;57291;37.520;15.106;2023-01-29T08:33:00;101492.22;;;10.97;85.65
54556;BME280;57291;37.520;15.106;2023-01-29T08:35:28;101485.94;;;11.07;85.48
54556;BME280;57291;37.520;15.106;2023-01-29T08:37:58;101482.88;;;11.19;84.56
54556;BME280;57291;37.520;15.106;2023-01-29T08:40:27;101496.69;;;11.33;83.47
54556;BME280;57291;37.520;15.106;2023-01-29T08:43:06;101496.31;;;11.44;81.75
54556;BME280;57291;37.520;15.106;2023-01-29T08:45:40;101500.94;;;11.49;80.10
54556;BME280;57291;37.520;15.106;2023-01-29T08:48:08;101501.91;;;11.63;79.88
54556;BME280;57291;37.520;15.106;2023-01-29T08:50:36;101505.97;;;11.66;78.27
54556;BME280;57291;37.520;15.106;2023-01-29T08:53:05;101502.31;;;11.81;77.58
54556;BME280;57291;37.520;15.106;2023-01-29T08:55:36;101505.09;;;11.76;76.17
54556;BME280;57291;37.520;15.106;2023-01-29T08:58:08;101510.94;;;11.59;78.71
54556;BME280;57291;37.520;15.106;2023-01-29T09:00:36;101515.50;;;11.68;79.42
54556;BME280;57291;37.520;15.106;2023-01-29T09:03:03;101516.47;;;11.88;79.78
54556;BME280;57291;37.520;15.106;2023-01-29T09:05:31;101507.38;;;11.97;79.23
54556;BME280;57291;37.520;15.106;2023-01-29T09:07:58;101516.25;;;12.13;78.84
54556;BME280;57291;37.520;15.106;2023-01-29T09:10:25;101521.84;;;12.27;77.59
54556;BME280;57291;37.520;15.106;2023-01-29T09:12:52;101524.66;;;12.17;74.61
54556;BME280;57291;37.520;15.106;2023-01-29T09:15:19;101526.78;;;12.25;76.16
54556;BME280;57291;37.520;15.106;2023-01-29T09:17:47;101531.69;;;12.23;75.94
54556;BME280;57291;37.520;15.106;2023-01-29T09:20:17;101527.63;;;12.20;77.51
54556;BME280;57291;37.520;15.106;2023-01-29T09:22:45;101522.13;;;12.26;77.63
54556;BME280;57291;37.520;15.106;2023-01-29T09:25:12;101528.25;;;12.41;77.48
54556;BME280;57291;37.520;15.106;2023-01-29T09:27:41;101531.41;;;12.78;75.15
54556;BME280;57291;37.520;15.106;2023-01-29T09:30:08;101528.69;;;12.78;72.42
54556;BME280;57291;37.520;15.106;2023-01-29T09:32:35;101535.13;;;12.87;72.39
54556;BME280;57291;37.520;15.106;2023-01-29T09:35:19;101532.63;;;12.90;72.11
54556;BME280;57291;37.520;15.106;2023-01-29T09:37:47;101537.75;;;13.16;72.11
54556;BME280;57291;37.520;15.106;2023-01-29T09:43:20;101525.94;;;13.02;69.59
54556;BME280;57291;37.520;15.106;2023-01-29T09:45:56;101530.72;;;12.91;68.45
54556;BME280;57291;37.520;15.106;2023-01-29T09:48:26;101526.88;;;12.68;69.63
54556;BME280;57291;37.520;15.106;2023-01-29T09:50:57;101527.69;;;12.68;70.15
54556;BME280;57291;37.520;15.106;2023-01-29T09:53:38;101527.19;;;12.90;69.86
54556;BME280;57291;37.520;15.106;2023-01-29T09:58:39;101530.06;;;12.75;68.23
54556;BME280;57291;37.520;15.106;2023-01-29T10:03:51;101528.38;;;12.79;68.76
54556;BME280;57291;37.520;15.106;2023-01-29T10:12:18;101511.03;;;13.37;69.36
54556;BME280;57291;37.520;15.106;2023-01-29T10:17:58;101508.91;;;13.53;65.87
54556;BME280;57291;37.520;15.106;2023-01-29T10:25:44;101497.28;;;13.80;64.43
54556;BME280;57291;37.520;15.106;2023-01-29T10:28:42;101494.75;;;13.83;63.99
54556;BME280;57291;37.520;15.106;2023-01-29T10:31:19;101493.16;;;13.82;63.87
54556;BME280;57291;37.520;15.106;2023-01-29T10:33:51;101492.84;;;13.84;63.73
54556;BME280;57291;37.520;15.106;2023-01-29T10:36:47;101487.09;;;14.18;64.19
54556;BME280;57291;37.520;15.106;2023-01-29T10:39:24;101482.84;;;14.40;62.00
54556;BME280;57291;37.520;15.106;2023-01-29T10:47:25;101479.53;;;14.70;62.87
54556;BME280;57291;37.520;15.106;2023-01-29T11:01:02;101462.78;;;14.30;61.30
54556;BME280;57291;37.520;15.106;2023-01-29T11:03:32;101462.41;;;14.51;61.38
54556;BME280;57291;37.520;15.106;2023-01-29T11:06:21;101445.28;;;14.73;60.19
54556;BME280;57291;37.520;15.106;2023-01-29T11:14:03;101424.81;;;14.70;57.83
54556;BME280;57291;37.520;15.106;2023-01-29T11:16:41;101438.16;;;14.99;56.96
54556;BME280;57291;37.520;15.106;2023-01-29T11:19:09;101438.16;;;14.99;56.32
54556;BME280;57291;37.520;15.106;2023-01-29T11:22:00;101448.63;;;14.70;54.95
54556;BME280;57291;37.520;15.106;2023-01-29T11:24:27;101444.16;;;14.88;55.05
54556;BME280;57291;37.520;15.106;2023-01-29T11:26:57;101436.19;;;15.14;53.86
54556;BME280;57291;37.520;15.106;2023-01-29T11:29:42;101434.28;;;15.14;56.15
54556;BME280;57291;37.520;15.106;2023-01-29T11:37:38;101439.81;;;14.59;56.35
54556;BME280;57291;37.520;15.106;2023-01-29T11:42:46;101440.00;;;14.35;57.43
54556;BME280;57291;37.520;15.106;2023-01-29T11:47:51;101436.69;;;14.66;56.32
54556;BME280;57291;37.520;15.106;2023-01-29T11:50:23;101431.50;;;14.78;54.97
54556;BME280;57291;37.520;15.106;2023-01-29T11:52:51;101437.41;;;14.71;55.78
54556;BME280;57291;37.520;15.106;2023-01-29T11:55:21;101435.34;;;14.63;54.87
54556;BME280;57291;37.520;15.106;2023-01-29T11:57:59;101431.31;;;14.61;56.00
54556;BME280;57291;37.520;15.106;2023-01-29T12:00:30;101424.75;;;14.62;56.23
54556;BME280;57291;37.520;15.106;2023-01-29T12:03:06;101426.94;;;14.46;55.38
54556;BME280;57291;37.520;15.106;2023-01-29T12:05:37;101431.59;;;14.31;55.59
54556;BME280;57291;37.520;15.106;2023-01-29T12:08:14;101428.75;;;14.37;57.25
54556;BME280;57291;37.520;15.106;2023-01-29T12:10:43;101420.84;;;14.21;55.58
54556;BME280;57291;37.520;15.106;2023-01-29T12:15:46;101410.31;;;14.15;54.10
54556;BME280;57291;37.520;15.106;2023-01-29T12:20:52;101420.34;;;14.33;54.24
54556;BME280;57291;37.520;15.106;2023-01-29T12:23:40;101415.16;;;14.18;55.10
54556;BME280;57291;37.520;15.106;2023-01-29T12:26:14;101403.13;;;14.05;56.24
54556;BME280;57291;37.520;15.106;2023-01-29T12:31:23;101406.03;;;13.95;53.50
54556;BME280;57291;37.520;15.106;2023-01-29T12:36:36;101400.88;;;13.93;53.75
54556;BME280;57291;37.520;15.106;2023-01-29T12:39:04;101396.94;;;13.99;53.65
54556;BME280;57291;37.520;15.106;2023-01-29T12:41:46;101400.41;;;14.19;53.30
54556;BME280;57291;37.520;15.106;2023-01-29T12:44:24;101379.53;;;14.09;53.68
54556;BME280;57291;37.520;15.106;2023-01-29T12:46:55;101392.28;;;14.14;53.14
54556;BME280;57291;37.520;15.106;2023-01-29T12:49:34;101394.53;;;14.25;51.06
54556;BME280;57291;37.520;15.106;2023-01-29T12:52:10;101393.00;;;14.33;52.33
54556;BME280;57291;37.520;15.106;2023-01-29T12:54:59;101392.31;;;14.55;53.33
54556;BME280;57291;37.520;15.106;2023-01-29T12:57:46;101392.31;;;14.69;50.87
54556;BME280;57291;37.520;15.106;2023-01-29T13:00:20;101388.50;;;14.92;50.47
54556;BME280;57291;37.520;15.106;2023-01-29T13:05:50;101385.78;;;14.78;52.17
54556;BME280;57291;37.520;15.106;2023-01-29T13:10:49;101378.75;;;15.22;51.56
54556;BME280;57291;37.520;15.106;2023-01-29T13:16:05;101380.81;;;15.62;50.92
54556;BME280;57291;37.520;15.106;2023-01-29T13:18:45;101376.13;;;15.62;50.29
54556;BME280;57291;37.520;15.106;2023-01-29T13:21:21;101377.00;;;15.49;50.80
54556;BME280;57291;37.520;15.106;2023-01-29T13:23:56;101377.88;;;15.13;51.44
54556;BME280;57291;37.520;15.106;2023-01-29T13:26:25;101378.31;;;14.70;52.02
54556;BME280;57291;37.520;15.106;2023-01-29T13:28:52;101382.28;;;14.23;54.18
54556;BME280;57291;37.520;15.106;2023-01-29T13:34:11;101382.41;;;13.71;55.24
54556;BME280;57291;37.520;15.106;2023-01-29T13:36:44;101383.00;;;13.68;55.05
54556;BME280;57291;37.520;15.106;2023-01-29T13:39:26;101376.78;;;13.49;56.52
54556;BME280;57291;37.520;15.106;2023-01-29T13:41:56;101390.56;;;13.57;55.55
54556;BME280;57291;37.520;15.106;2023-01-29T13:44:35;101388.97;;;13.56;55.74
54556;BME280;57291;37.520;15.106;2023-01-29T13:49:38;101397.25;;;13.32;56.62
54556;BME280;57291;37.520;15.106;2023-01-29T13:52:20;101390.16;;;13.12;57.41
54556;BME280;57291;37.520;15.106;2023-01-29T13:54:57;101389.00;;;13.00;57.93
54556;BME280;57291;37.520;15.106;2023-01-29T13:57:54;101391.84;;;12.89;57.93
54556;BME280;57291;37.520;15.106;2023-01-29T14:10:27;101378.38;;;12.60;60.09
54556;BME280;57291;37.520;15.106;2023-01-29T14:15:35;101381.09;;;12.36;61.87
54556;BME280;57291;37.520;15.106;2023-01-29T14:18:24;101377.91;;;12.29;61.02
54556;BME280;57291;37.520;15.106;2023-01-29T14:21:05;101386.91;;;12.30;61.75
54556;BME280;57291;37.520;15.106;2023-01-29T14:23:39;101393.81;;;12.22;62.66
54556;BME280;57291;37.520;15.106;2023-01-29T14:29:19;101388.25;;;12.08;62.49
54556;BME280;57291;37.520;15.106;2023-01-29T14:34:34;101397.34;;;11.99;62.53
54556;BME280;57291;37.520;15.106;2023-01-29T14:42:21;101407.53;;;11.83;62.64
54556;BME280;57291;37.520;15.106;2023-01-29T14:45:07;101403.47;;;11.80;62.69
54556;BME280;57291;37.520;15.106;2023-01-29T14:53:08;101404.03;;;11.77;63.43
54556;BME280;57291;37.520;15.106;2023-01-29T14:55:38;101410.81;;;11.80;63.95
54556;BME280;57291;37.520;15.106;2023-01-29T14:58:12;101408.09;;;11.80;64.16
54556;BME280;57291;37.520;15.106;2023-01-29T15:00:43;101414.34;;;11.80;64.49
54556;BME280;57291;37.520;15.106;2023-01-29T15:03:36;101411.28;;;11.92;63.83
54556;BME280;57291;37.520;15.106;2023-01-29T15:06:08;101413.34;;;12.05;63.24
54556;BME280;57291;37.520;15.106;2023-01-29T15:08:46;101408.00;;;12.19;62.19
54556;BME280;57291;37.520;15.106;2023-01-29T15:11:25;101409.50;;;12.30;62.86
54556;BME280;57291;37.520;15.106;2023-01-29T15:17:03;101412.34;;;12.20;63.33
54556;BME280;57291;37.520;15.106;2023-01-29T15:19:41;101416.31;;;12.09;62.72
54556;BME280;57291;37.520;15.106;2023-01-29T15:24:44;101420.75;;;12.00;62.64
54556;BME280;57291;37.520;15.106;2023-01-29T15:27:17;101422.44;;;11.95;62.75
54556;BME280;57291;37.520;15.106;2023-01-29T15:29:57;101420.56;;;11.91;63.41
54556;BME280;57291;37.520;15.106;2023-01-29T15:32:30;101424.44;;;11.85;63.96
54556;BME280;57291;37.520;15.106;2023-01-29T15:34:58;101425.50;;;11.84;64.49
54556;BME280;57291;37.520;15.106;2023-01-29T15:37:29;101426.38;;;11.79;64.89
54556;BME280;57291;37.520;15.106;2023-01-29T15:39:57;101428.53;;;11.77;64.75
54556;BME280;57291;37.520;15.106;2023-01-29T15:42:28;101433.72;;;11.79;65.29
54556;BME280;57291;37.520;15.106;2023-01-29T15:44:55;101429.59;;;11.81;64.86
54556;BME280;57291;37.520;15.106;2023-01-29T15:47:26;101438.88;;;11.80;64.81